Time;durP1;ratioP1;P1;durP2;ratioP2;P2;SDS_P1;SDS_P2;PMS_P1;PMS_P2;Temp;Humidity;BMP_temperature;BMP_pressure;BME280_temperature;BME280_humidity;BME280_pressure;Samples;Min_cycle;Max_cycle;Signal;HPM_P1;HPM_P2
2023/02/16 05:30:34;;;;;;;22.25;10.57;;;11.30;86.00;;;;;;6100769;23;20025;-76
2023/02/16 05:33:00;;;;;;;20.23;10.50;;;11.30;86.00;;;;;;6126957;23;20553;-74
2023/02/16 05:35:26;;;;;;;16.98;9.00;;;11.30;85.90;;;;;;6129413;23;20005;-79
2023/02/16 05:37:51;;;;;;;24.83;10.75;;;11.30;86.00;;;;;;6129664;23;20506;-76
2023/02/16 05:40:17;;;;;;;24.15;11.23;;;11.20;86.40;;;;;;6103173;23;20013;-80
2023/02/16 05:43:02;;;;;;;23.83;10.95;;;11.30;86.40;;;;;;6129974;23;20081;-80
2023/02/16 05:45:28;;;;;;;26.05;10.35;;;11.40;86.20;;;;;;6129501;23;20040;-83
2023/02/16 05:47:54;;;;;;;18.73;9.98;;;11.50;86.00;;;;;;6103926;23;20446;-79
2023/02/16 05:50:19;;;;;;;19.35;10.00;;;11.50;85.80;;;;;;6104021;23;20009;-81
2023/02/16 05:52:45;;;;;;;20.40;9.80;;;11.50;85.80;;;;;;6103483;23;20020;-81
2023/02/16 05:55:11;;;;;;;25.25;11.23;;;11.50;85.70;;;;;;6104268;23;20002;-82
2023/02/16 05:57:36;;;;;;;20.17;11.60;;;11.50;85.70;;;;;;6103233;23;20065;-83
2023/02/16 06:00:05;;;;;;;22.30;9.95;;;11.50;85.70;;;;;;6129236;23;20012;-76
2023/02/16 06:02:31;;;;;;;23.75;10.77;;;11.50;85.70;;;;;;6101265;23;20010;-76
2023/02/16 06:04:57;;;;;;;21.88;9.98;;;11.50;85.60;;;;;;6128471;23;20061;-77
2023/02/16 06:07:22;;;;;;;22.33;10.38;;;11.50;85.70;;;;;;6103029;23;20013;-77
2023/02/16 06:09:48;;;;;;;22.55;9.45;;;11.50;85.70;;;;;;6103831;23;20025;-77
2023/02/16 06:12:14;;;;;;;24.40;9.77;;;11.50;85.70;;;;;;6129194;23;20009;-77
2023/02/16 06:14:39;;;;;;;22.70;8.93;;;11.50;85.70;;;;;;6129800;23;20006;-78
2023/02/16 06:17:05;;;;;;;17.02;8.80;;;11.50;85.60;;;;;;6129371;23;20085;-78
2023/02/16 06:19:31;;;;;;;22.33;9.98;;;11.50;85.50;;;;;;6129090;23;20006;-78
2023/02/16 06:21:56;;;;;;;23.08;9.15;;;11.50;85.50;;;;;;6103426;23;20002;-76
2023/02/16 06:24:22;;;;;;;23.98;10.55;;;11.50;85.50;;;;;;6129491;23;19998;-76
2023/02/16 06:26:48;;;;;;;23.48;10.57;;;11.60;85.40;;;;;;6129328;23;20006;-75
2023/02/16 06:29:13;;;;;;;26.80;10.38;;;11.60;85.20;;;;;;6129148;23;20009;-76
2023/02/16 06:31:39;;;;;;;17.35;9.32;;;11.60;85.20;;;;;;6129466;23;20029;-76
2023/02/16 06:34:05;;;;;;;19.80;10.35;;;11.60;85.20;;;;;;6129561;23;20006;-76
2023/02/16 06:36:31;;;;;;;21.35;9.27;;;11.60;85.10;;;;;;6129406;23;20006;-76
2023/02/16 06:38:57;;;;;;;24.15;9.18;;;11.60;85.00;;;;;;6129166;23;20012;-76
2023/02/16 06:41:34;;;;;;;23.48;8.90;;;11.60;85.00;;;;;;6129255;23;19998;-76
2023/02/16 06:44:02;;;;;;;21.08;9.77;;;11.60;85.00;;;;;;6129163;23;20008;-76
2023/02/16 06:46:28;;;;;;;22.77;9.05;;;11.60;85.00;;;;;;6129177;23;20006;-76
2023/02/16 06:48:53;;;;;;;23.30;9.02;;;11.70;84.90;;;;;;6129119;23;20013;-76
2023/02/16 06:51:19;;;;;;;25.80;10.77;;;11.60;85.00;;;;;;6129188;23;20002;-76
2023/02/16 06:53:46;;;;;;;22.23;10.20;;;11.60;84.80;;;;;;6129232;23;20041;-76
2023/02/16 06:56:12;;;;;;;17.67;8.98;;;11.60;84.80;;;;;;6129067;23;20006;-76
2023/02/16 06:58:38;;;;;;;18.48;8.93;;;11.70;84.70;;;;;;6129238;23;20010;-76
2023/02/16 07:01:04;;;;;;;21.80;9.48;;;11.60;84.70;;;;;;6127987;23;20312;-76
2023/02/16 07:03:29;;;;;;;20.58;9.75;;;11.60;84.60;;;;;;6127794;23;20002;-76
2023/02/16 07:05:55;;;;;;;20.50;10.43;;;11.70;84.70;;;;;;6129307;23;20006;-76
2023/02/16 07:08:23;;;;;;;18.05;9.23;;;11.60;84.60;;;;;;6127326;23;20085;-75
2023/02/16 07:10:49;;;;;;;21.35;9.70;;;11.70;84.50;;;;;;6103358;23;20013;-76
2023/02/16 07:13:14;;;;;;;19.38;10.32;;;11.70;84.40;;;;;;6128754;23;20016;-76
2023/02/16 07:15:40;;;;;;;15.18;8.55;;;11.70;84.40;;;;;;6129038;23;20343;-75
2023/02/16 07:18:06;;;;;;;16.65;8.93;;;11.70;84.50;;;;;;6129041;23;20009;-75
2023/02/16 07:20:31;;;;;;;19.38;9.82;;;11.70;84.40;;;;;;6128989;23;19998;-76
2023/02/16 07:22:57;;;;;;;17.77;9.68;;;11.70;84.40;;;;;;6128839;23;20518;-76
2023/02/16 07:25:25;;;;;;;15.15;8.85;;;11.70;84.30;;;;;;6129098;23;20085;-76
2023/02/16 07:27:53;;;;;;;16.50;8.70;;;11.70;84.30;;;;;;6129328;23;19998;-75
2023/02/16 07:30:19;;;;;;;19.67;9.05;;;11.70;84.30;;;;;;6102630;23;20014;-76
2023/02/16 07:32:46;;;;;;;16.88;9.90;;;11.70;84.20;;;;;;6129080;23;20057;-76
2023/02/16 07:35:11;;;;;;;16.30;8.45;;;11.80;84.20;;;;;;6127618;23;20442;-76
2023/02/16 07:37:37;;;;;;;16.45;8.77;;;11.80;84.10;;;;;;6128009;23;20006;-76
2023/02/16 07:40:04;;;;;;;17.67;8.30;;;11.80;84.10;;;;;;6101906;23;20017;-75
2023/02/16 07:42:31;;;;;;;21.40;8.63;;;11.80;84.10;;;;;;6101947;23;20002;-75
2023/02/16 07:44:57;;;;;;;14.98;8.77;;;11.80;84.00;;;;;;6128418;23;20002;-75
2023/02/16 07:47:23;;;;;;;20.40;8.82;;;11.80;84.10;;;;;;6128776;23;20435;-75
2023/02/16 07:49:49;;;;;;;15.98;8.45;;;11.70;84.00;;;;;;6102602;23;20020;-75
2023/02/16 07:52:15;;;;;;;16.75;8.10;;;11.70;84.20;;;;;;6129145;23;20086;-75
2023/02/16 07:54:40;;;;;;;16.40;8.73;;;11.80;84.20;;;;;;6127971;23;20010;-75
2023/02/16 07:57:06;;;;;;;21.73;8.68;;;11.80;84.20;;;;;;6123947;23;20010;-83
2023/02/16 07:59:32;;;;;;;19.58;8.13;;;11.80;84.30;;;;;;6101026;23;20013;-83
2023/02/16 08:01:58;;;;;;;14.75;7.65;;;11.80;84.30;;;;;;6127244;23;20457;-84
2023/02/16 08:04:31;;;;;;;14.75;7.82;;;11.80;84.30;;;;;;6102324;23;20009;-84
2023/02/16 08:06:57;;;;;;;16.05;7.88;;;11.80;84.30;;;;;;6101162;23;20033;-83
2023/02/16 08:09:23;;;;;;;15.10;7.45;;;11.80;84.20;;;;;;6102458;23;20382;-83
2023/02/16 08:11:48;;;;;;;14.32;6.75;;;11.80;84.20;;;;;;6127712;23;20068;-83
2023/02/16 08:14:15;;;;;;;16.92;7.75;;;11.80;84.10;;;;;;6102228;23;20086;-83
2023/02/16 08:16:40;;;;;;;13.73;7.22;;;11.80;84.10;;;;;;6102203;23;20013;-83
2023/02/16 08:19:08;;;;;;;11.10;6.85;;;11.80;84.00;;;;;;6103221;23;20367;-83
2023/02/16 08:21:34;;;;;;;13.18;7.45;;;11.80;84.00;;;;;;6129740;23;20006;-85
2023/02/16 08:24:01;;;;;;;15.32;6.15;;;11.90;83.90;;;;;;6103871;23;20012;-84
2023/02/16 08:26:38;;;;;;;16.25;6.65;;;11.90;83.70;;;;;;6129939;23;20006;-83
2023/02/16 08:29:05;;;;;;;14.68;6.85;;;11.90;83.80;;;;;;6104159;23;20014;-84
2023/02/16 08:31:33;;;;;;;14.88;6.70;;;11.90;83.70;;;;;;6129875;23;20045;-83
2023/02/16 08:34:01;;;;;;;11.80;5.72;;;11.90;83.70;;;;;;6129988;23;20010;-83
2023/02/16 08:36:33;;;;;;;11.80;6.35;;;12.00;83.70;;;;;;6128736;23;20013;-85
2023/02/16 08:39:02;;;;;;;13.23;6.05;;;12.00;83.50;;;;;;6130245;23;20002;-83
2023/02/16 08:41:31;;;;;;;10.38;5.80;;;12.10;83.40;;;;;;6104124;23;20006;-84
2023/02/16 08:43:57;;;;;;;14.90;6.13;;;12.20;83.20;;;;;;6104216;23;20009;-83
2023/02/16 08:46:23;;;;;;;9.80;5.68;;;12.20;83.00;;;;;;6104194;23;20461;-85
2023/02/16 08:48:49;;;;;;;9.13;5.28;;;12.30;82.70;;;;;;6104675;23;20014;-84
2023/02/16 08:51:17;;;;;;;10.85;4.97;;;12.40;82.50;;;;;;6130184;23;20498;-84
2023/02/16 08:53:45;;;;;;;12.73;5.22;;;12.50;82.20;;;;;;6130215;23;20002;-84
2023/02/16 08:56:12;;;;;;;7.22;4.07;;;12.50;81.80;;;;;;6103142;23;20006;-83
2023/02/16 08:58:37;;;;;;;7.70;4.70;;;12.50;82.10;;;;;;6129957;23;20037;-83
2023/02/16 09:01:08;;;;;;;7.03;4.35;;;12.60;81.90;;;;;;6130036;23;20053;-84
2023/02/16 09:03:34;;;;;;;11.77;4.57;;;12.60;81.50;;;;;;6104167;23;20006;-85
2023/02/16 09:06:03;;;;;;;8.70;4.07;;;12.70;81.50;;;;;;6130214;23;20442;-84
2023/02/16 09:08:29;;;;;;;10.45;4.45;;;12.60;81.40;;;;;;6130211;23;20009;-85
2023/02/16 09:10:59;;;;;;;11.80;3.80;;;12.70;81.30;;;;;;6129614;23;20016;-81
2023/02/16 09:13:25;;;;;;;7.95;4.93;;;12.80;81.10;;;;;;6129694;23;20014;-84
2023/02/16 09:15:51;;;;;;;11.02;4.65;;;12.80;80.70;;;;;;6103920;23;20033;-83
2023/02/16 09:18:17;;;;;;;10.85;3.28;;;12.90;80.60;;;;;;6102341;23;20033;-85
2023/02/16 09:20:43;;;;;;;6.03;3.15;;;13.00;80.30;;;;;;6129787;23;20006;-85
2023/02/16 09:23:13;;;;;;;9.73;3.50;;;13.00;80.00;;;;;;6129577;23;20002;-84
2023/02/16 09:25:43;;;;;;;6.00;2.85;;;13.10;79.80;;;;;;6128874;23;20009;-85
2023/02/16 09:28:09;;;;;;;4.22;2.55;;;13.20;79.50;;;;;;6129094;23;20076;-83
2023/02/16 09:30:37;;;;;;;4.25;2.88;;;13.30;79.30;;;;;;6129501;23;20019;-83
2023/02/16 09:33:03;;;;;;;11.77;4.07;;;13.30;79.10;;;;;;6099031;23;20006;-83
2023/02/16 09:35:29;;;;;;;6.65;2.75;;;13.30;78.80;;;;;;6126858;23;19998;-83
2023/02/16 09:37:56;;;;;;;7.43;2.50;;;13.20;78.80;;;;;;6126224;23;20106;-83
2023/02/16 09:40:23;;;;;;;10.77;4.22;;;13.20;78.90;;;;;;6100717;23;20010;-83
2023/02/16 09:42:59;;;;;;;8.88;3.15;;;13.20;79.00;;;;;;6126583;23;20037;-83
2023/02/16 09:45:25;;;;;;;5.28;3.08;;;13.20;78.80;;;;;;6101467;23;20013;-83
2023/02/16 09:47:53;;;;;;;8.20;3.60;;;13.20;79.10;;;;;;6127349;23;20129;-83
2023/02/16 09:50:28;;;;;;;8.18;3.95;;;13.10;78.80;;;;;;6102479;23;20060;-83
2023/02/16 09:53:04;;;;;;;6.32;2.63;;;13.10;79.20;;;;;;6130018;23;20509;-84
2023/02/16 09:55:46;;;;;;;8.00;3.20;;;13.20;78.80;;;;;;6127381;23;19998;-83
2023/02/16 09:58:11;;;;;;;9.05;2.90;;;13.20;78.90;;;;;;6127634;23;20012;-84
2023/02/16 10:00:52;;;;;;;6.03;2.50;;;13.20;78.50;;;;;;6126983;23;20672;-84
2023/02/16 10:03:42;;;;;;;3.50;2.50;;;13.20;78.50;;;;;;6128041;23;19998;-84
2023/02/16 10:06:13;;;;;;;3.65;2.40;;;13.20;78.40;;;;;;6128316;23;19998;-84
2023/02/16 10:08:52;;;;;;;8.63;3.42;;;13.30;78.50;;;;;;6128988;23;20001;-84
2023/02/16 10:11:37;;;;;;;7.28;2.80;;;13.30;78.50;;;;;;6128990;23;20434;-85
2023/02/16 10:14:21;;;;;;;4.63;2.33;;;13.50;77.80;;;;;;6102482;23;20012;-84
2023/02/16 10:16:57;;;;;;;6.85;2.78;;;13.50;77.80;;;;;;6101794;23;20340;-83
2023/02/16 10:19:46;;;;;;;5.30;2.92;;;13.50;77.90;;;;;;6103176;23;20010;-85
2023/02/16 10:22:16;;;;;;;5.90;3.13;;;13.40;77.70;;;;;;6102887;23;20010;-84
2023/02/16 10:24:54;;;;;;;6.32;2.72;;;13.40;77.30;;;;;;6129625;23;20434;-85
2023/02/16 10:27:21;;;;;;;5.22;2.33;;;13.40;77.20;;;;;;6103331;23;20006;-85
2023/02/16 10:29:47;;;;;;;6.78;2.65;;;13.40;76.80;;;;;;6127635;23;20002;-85
2023/02/16 10:32:27;;;;;;;6.90;2.28;;;13.40;76.90;;;;;;6127039;23;20022;-84
2023/02/16 10:35:09;;;;;;;6.05;2.33;;;13.40;76.70;;;;;;6101401;23;20451;-85
2023/02/16 10:37:42;;;;;;;9.07;2.80;;;13.40;76.50;;;;;;6129158;23;20016;-85
2023/02/16 10:40:24;;;;;;;6.45;3.03;;;13.50;76.60;;;;;;6096253;23;20009;-85
2023/02/16 10:43:18;;;;;;;5.07;2.38;;;13.50;77.10;;;;;;6128243;23;20057;-86
2023/02/16 10:45:55;;;;;;;7.70;2.65;;;13.50;77.20;;;;;;6103443;23;20077;-85
2023/02/16 10:48:22;;;;;;;9.82;2.72;;;13.50;76.60;;;;;;6103631;23;20009;-85
2023/02/16 10:51:00;;;;;;;5.13;1.88;;;13.50;77.00;;;;;;6102625;23;20010;-85
2023/02/16 10:53:48;;;;;;;5.25;2.60;;;13.50;76.10;;;;;;6127577;23;20211;-84
2023/02/16 10:56:45;;;;;;;6.47;2.40;;;13.50;76.40;;;;;;6102401;23;20446;-84
2023/02/16 10:59:30;;;;;;;5.75;1.80;;;13.50;76.00;;;;;;6128803;23;20002;-84
2023/02/16 11:02:00;;;;;;;5.50;2.08;;;13.50;76.40;;;;;;6129017;23;20383;-85
2023/02/16 11:04:43;;;;;;;6.72;2.03;;;13.40;76.50;;;;;;6128880;23;20077;-85
2023/02/16 11:07:15;;;;;;;5.35;2.35;;;13.50;77.00;;;;;;6128729;23;20006;-84
2023/02/16 11:09:43;;;;;;;3.83;2.13;;;13.50;77.50;;;;;;6128964;23;20320;-84
2023/02/16 11:12:32;;;;;;;10.18;2.00;;;13.60;77.40;;;;;;6103071;23;20061;-83
2023/02/16 11:15:06;;;;;;;4.77;2.00;;;13.60;77.50;;;;;;6102989;23;20014;-89
2023/02/16 11:17:47;;;;;;;5.55;2.00;;;13.60;77.70;;;;;;6129379;23;20324;-88
2023/02/16 11:20:51;;;;;;;2.30;1.30;;;13.70;78.10;;;;;;6103669;23;20063;-89
2023/02/16 11:23:38;;;;;;;4.65;1.52;;;13.70;78.20;;;;;;6097325;23;20008;-85
2023/02/16 11:26:10;;;;;;;1.92;1.40;;;13.70;78.30;;;;;;6102445;23;20108;-84
2023/02/16 11:28:43;;;;;;;3.88;1.88;;;13.70;78.10;;;;;;6128910;23;20010;-85
2023/02/16 11:31:35;;;;;;;3.97;1.75;;;13.70;78.10;;;;;;6110183;23;20021;-85
2023/02/16 11:34:24;;;;;;;4.80;1.65;;;13.70;77.90;;;;;;6129402;23;20404;-85
2023/02/16 11:36:49;;;;;;;4.75;1.83;;;13.70;77.10;;;;;;6128810;23;20006;-84
2023/02/16 11:39:22;;;;;;;3.85;1.55;;;13.80;77.20;;;;;;6127760;23;20017;-85
2023/02/16 11:41:52;;;;;;;3.95;1.13;;;13.80;77.10;;;;;;6129195;23;20537;-85
2023/02/16 11:44:39;;;;;;;2.47;1.50;;;13.90;77.10;;;;;;6128536;23;20458;-83
2023/02/16 11:47:23;;;;;;;2.05;0.85;;;13.90;76.30;;;;;;6127203;23;20002;-85
2023/02/16 11:50:06;;;;;;;2.78;1.10;;;13.80;75.80;;;;;;6128865;23;20006;-85
2023/02/16 11:52:32;;;;;;;6.53;1.45;;;13.80;75.60;;;;;;6128827;23;20061;-84
2023/02/16 11:54:59;;;;;;;5.00;1.25;;;13.90;75.80;;;;;;6129178;23;20005;-81
2023/02/16 11:57:31;;;;;;;3.63;1.23;;;13.90;75.60;;;;;;6128982;23;20009;-84
2023/02/16 11:59:58;;;;;;;4.88;1.20;;;14.00;75.40;;;;;;6127570;23;20100;-82
2023/02/16 12:02:34;;;;;;;3.40;1.05;;;14.00;75.50;;;;;;6126722;23;20013;-85
2023/02/16 12:05:35;;;;;;;6.63;1.55;;;14.10;75.40;;;;;;6127350;23;20009;-85
2023/02/16 12:08:05;;;;;;;4.38;1.33;;;14.20;75.40;;;;;;6109128;23;20076;-85
2023/02/16 12:10:41;;;;;;;5.80;1.60;;;14.30;75.00;;;;;;6129469;23;20006;-82
2023/02/16 12:13:31;;;;;;;5.55;1.42;;;14.30;75.20;;;;;;6128856;23;20033;-81
2023/02/16 12:16:06;;;;;;;;;;;14.40;75.30;;;;;;6129471;23;19998;-79
2023/02/16 12:18:45;;;;;;;4.60;1.80;;;14.30;75.50;;;;;;6128459;23;20317;-77
2023/02/16 12:21:41;;;;;;;3.42;1.40;;;14.30;75.70;;;;;;6128539;23;20045;-78
2023/02/16 12:24:23;;;;;;;5.47;1.55;;;14.40;75.60;;;;;;6128784;23;20394;-79
2023/02/16 12:26:52;;;;;;;7.03;2.10;;;14.40;75.80;;;;;;6126932;23;20427;-78
2023/02/16 12:29:43;;;;;;;2.35;1.33;;;14.40;76.00;;;;;;6127582;23;20013;-78
2023/02/16 12:32:21;;;;;;;2.95;1.40;;;14.40;76.20;;;;;;6128549;23;20014;-78
2023/02/16 12:35:06;;;;;;;5.45;1.55;;;14.30;76.30;;;;;;6128177;23;20002;-84
2023/02/16 12:37:43;;;;;;;4.40;1.80;;;14.30;76.50;;;;;;6128917;23;20005;-76
2023/02/16 12:40:30;;;;;;;3.60;1.85;;;14.30;76.60;;;;;;6102605;23;20342;-76
2023/02/16 12:42:59;;;;;;;7.07;2.15;;;14.30;76.50;;;;;;6127777;23;20084;-76
2023/02/16 12:45:30;;;;;;;4.63;1.83;;;14.30;76.50;;;;;;6128716;23;20002;-76
2023/02/16 12:48:20;;;;;;;3.17;1.80;;;14.30;76.40;;;;;;6102994;23;20438;-75
2023/02/16 12:50:48;;;;;;;2.30;1.30;;;14.40;76.60;;;;;;6128883;23;20014;-76
2023/02/16 12:53:26;;;;;;;3.75;1.67;;;14.40;76.60;;;;;;6127983;23;20002;-77
2023/02/16 12:56:06;;;;;;;3.25;1.63;;;14.40;76.80;;;;;;6128987;23;20017;-78
2023/02/16 12:58:37;;;;;;;4.20;1.60;;;14.40;76.70;;;;;;6127511;23;20017;-77
2023/02/16 13:01:17;;;;;;;5.00;1.67;;;14.40;76.80;;;;;;6128640;23;20222;-77
2023/02/16 13:03:49;;;;;;;3.65;2.00;;;14.40;76.80;;;;;;6102807;23;20013;-76
2023/02/16 13:06:24;;;;;;;7.13;2.15;;;14.40;76.90;;;;;;6104511;23;20061;-77
2023/02/16 13:09:02;;;;;;;4.30;1.38;;;14.40;77.00;;;;;;6104525;23;20461;-76
2023/02/16 13:11:41;;;;;;;2.72;1.42;;;14.50;77.20;;;;;;6104848;23;20527;-78
2023/02/16 13:14:22;;;;;;;3.13;1.65;;;14.50;77.00;;;;;;6104310;23;20037;-76
2023/02/16 13:17:02;;;;;;;4.50;1.58;;;14.50;77.00;;;;;;6129614;23;20123;-77
2023/02/16 13:19:28;;;;;;;4.28;1.40;;;14.50;77.20;;;;;;6129456;23;20088;-76
2023/02/16 13:22:31;;;;;;;6.35;1.60;;;14.50;77.10;;;;;;6129930;23;19998;-77
2023/02/16 13:25:00;;;;;;;6.32;1.42;;;14.40;77.40;;;;;;6056410;23;20018;-77
2023/02/16 13:27:36;;;;;;;5.32;1.70;;;14.50;77.40;;;;;;6130015;23;20005;-77
2023/02/16 13:30:39;;;;;;;3.20;1.75;;;14.50;77.50;;;;;;6104623;23;20010;-77
2023/02/16 13:33:46;;;;;;;6.45;1.48;;;14.50;77.60;;;;;;6129172;23;20018;-77
2023/02/16 13:36:21;;;;;;;4.07;2.17;;;14.50;77.60;;;;;;5960278;24;20087;-77
2023/02/16 13:39:20;;;;;;;4.13;1.60;;;14.40;77.80;;;;;;6107304;23;20021;-77
2023/02/16 13:42:20;;;;;;;3.42;1.80;;;14.40;77.90;;;;;;6129863;23;20101;-76
2023/02/16 13:44:57;;;;;;;4.53;1.45;;;14.50;78.00;;;;;;6103159;23;20018;-76
2023/02/16 13:47:46;;;;;;;1.88;1.17;;;14.40;78.00;;;;;;6129180;23;20002;-76
2023/02/16 13:50:21;;;;;;;3.03;1.58;;;14.30;78.20;;;;;;6126961;23;20085;-76
2023/02/16 13:52:48;;;;;;;5.03;1.58;;;14.30;78.30;;;;;;6102536;23;20016;-76
2023/02/16 13:55:32;;;;;;;2.83;1.10;;;14.30;78.40;;;;;;6103177;23;20453;-76
2023/02/16 13:58:04;;;;;;;4.00;1.50;;;14.30;78.40;;;;;;6128311;23;20057;-77
2023/02/16 14:00:44;;;;;;;1.38;1.02;;;14.30;78.50;;;;;;6124128;23;20009;-76
2023/02/16 14:03:16;;;;;;;2.88;1.52;;;14.30;78.60;;;;;;6099579;23;20553;-76
2023/02/16 14:05:44;;;;;;;5.20;1.35;;;14.30;78.80;;;;;;6127841;23;20001;-75
2023/02/16 14:08:13;;;;;;;3.65;1.17;;;14.30;78.80;;;;;;6128884;23;20017;-80
2023/02/16 14:10:54;;;;;;;2.88;1.00;;;14.30;78.90;;;;;;6127869;23;20008;-80
2023/02/16 14:13:38;;;;;;;3.70;1.20;;;14.30;79.00;;;;;;6128761;23;19998;-79
2023/02/16 14:16:09;;;;;;;1.60;0.73;;;14.30;79.20;;;;;;6126778;23;20650;-77
2023/02/16 14:18:43;;;;;;;2.25;1.20;;;14.20;79.20;;;;;;6128113;23;20004;-79
2023/02/16 14:21:30;;;;;;;4.20;1.55;;;14.30;79.40;;;;;;6103098;23;20013;-79
2023/02/16 14:23:58;;;;;;;1.23;0.80;;;14.20;79.50;;;;;;6128197;23;20030;-80
2023/02/16 14:26:25;;;;;;;5.47;1.30;;;14.20;79.80;;;;;;6128017;23;20459;-79
2023/02/16 14:29:17;;;;;;;2.80;1.35;;;14.10;80.00;;;;;;6128194;23;20001;-79
2023/02/16 14:31:54;;;;;;;5.43;2.03;;;14.10;80.30;;;;;;6116575;23;20026;-79
2023/02/16 14:34:38;;;;;;;2.78;1.38;;;14.20;80.30;;;;;;6128549;23;20126;-79
2023/02/16 14:37:15;;;;;;;6.45;1.60;;;14.20;80.60;;;;;;6128294;23;20032;-79
2023/02/16 14:39:46;;;;;;;2.80;1.38;;;14.10;81.00;;;;;;6126431;23;20038;-79
2023/02/16 14:42:16;;;;;;;2.50;1.45;;;14.10;81.00;;;;;;6128357;23;20052;-79
2023/02/16 14:45:03;;;;;;;2.17;0.90;;;14.10;81.00;;;;;;6124851;23;20010;-79
2023/02/16 14:47:41;;;;;;;2.97;1.70;;;14.10;81.00;;;;;;6128296;23;20005;-79
2023/02/16 14:50:08;;;;;;;6.57;1.60;;;14.10;81.10;;;;;;6129527;23;20575;-79
2023/02/16 14:52:36;;;;;;;4.47;1.75;;;14.10;81.30;;;;;;6127951;23;19998;-79
2023/02/16 14:55:32;;;;;;;1.98;1.48;;;14.10;81.30;;;;;;6128308;23;19998;-79
2023/02/16 14:58:31;;;;;;;4.10;1.45;;;14.10;81.30;;;;;;6128162;23;20009;-79
2023/02/16 15:01:16;;;;;;;3.65;1.55;;;14.10;81.40;;;;;;6127838;23;20009;-79
2023/02/16 15:03:46;;;;;;;3.55;1.50;;;14.20;81.50;;;;;;6128218;23;20061;-79
2023/02/16 15:06:28;;;;;;;1.83;1.35;;;14.10;81.50;;;;;;6126807;23;19998;-79
2023/02/16 15:08:57;;;;;;;2.85;1.15;;;14.10;81.80;;;;;;6128869;23;20055;-79
2023/02/16 15:12:20;;;;;;;2.72;1.38;;;14.10;81.80;;;;;;6127681;23;20446;-79
2023/02/16 15:14:23;;;;;;;3.38;1.45;;;14.00;82.00;;;;;;6128837;23;20005;-78
2023/02/16 15:16:52;;;;;;;5.82;1.48;;;14.00;82.00;;;;;;6127217;23;20009;-79
2023/02/16 15:19:24;;;;;;;2.67;1.40;;;14.10;82.10;;;;;;6126884;23;20006;-79
2023/02/16 15:22:19;;;;;;;3.08;1.35;;;14.00;82.10;;;;;;6127986;23;20036;-79
2023/02/16 15:24:55;;;;;;;2.63;1.30;;;14.10;82.00;;;;;;6128263;23;20005;-79
2023/02/16 15:27:22;;;;;;;4.10;2.22;;;14.10;82.10;;;;;;6128082;23;20076;-79
2023/02/16 15:30:03;;;;;;;3.13;1.80;;;14.10;82.10;;;;;;6128146;23;20351;-79
2023/02/16 15:32:30;;;;;;;5.22;1.92;;;14.10;82.10;;;;;;6127714;23;20025;-79
2023/02/16 15:34:56;;;;;;;3.47;1.75;;;14.10;82.10;;;;;;6127270;23;20005;-79
2023/02/16 15:37:31;;;;;;;2.13;1.48;;;14.00;82.40;;;;;;6101796;23;20096;-79
2023/02/16 15:40:12;;;;;;;3.17;1.48;;;14.00;82.50;;;;;;6127341;23;20012;-79
2023/02/16 15:42:42;;;;;;;5.25;2.22;;;14.00;82.40;;;;;;6124035;23;20013;-79
2023/02/16 15:45:37;;;;;;;5.20;1.88;;;14.00;82.40;;;;;;6126777;23;20114;-81
2023/02/16 15:48:23;;;;;;;2.65;1.50;;;14.00;82.40;;;;;;6096292;23;20351;-79
2023/02/16 15:50:52;;;;;;;2.88;1.48;;;14.00;82.60;;;;;;6127387;23;20001;-79
2023/02/16 15:53:44;;;;;;;5.63;1.98;;;14.00;82.60;;;;;;6127913;23;19998;-79
2023/02/16 15:56:43;;;;;;;2.90;1.60;;;14.00;82.50;;;;;;6101736;23;20022;-79
2023/02/16 15:59:27;;;;;;;4.82;1.90;;;14.00;82.70;;;;;;6091842;23;20006;-79
2023/02/16 16:02:10;;;;;;;4.40;1.90;;;13.90;82.90;;;;;;6101888;23;20005;-79
2023/02/16 16:04:40;;;;;;;2.10;1.50;;;13.90;83.00;;;;;;6126136;23;20045;-79
2023/02/16 16:07:07;;;;;;;2.45;1.70;;;13.90;83.10;;;;;;6127800;23;20002;-79
2023/02/16 16:09:35;;;;;;;2.50;1.77;;;13.90;83.10;;;;;;6127775;23;20002;-79
2023/02/16 16:12:05;;;;;;;4.72;1.70;;;13.90;83.10;;;;;;6126714;23;20154;-79
2023/02/16 16:14:38;;;;;;;3.13;1.55;;;13.90;83.20;;;;;;6124831;23;20671;-79
2023/02/16 16:17:07;;;;;;;3.10;1.50;;;13.90;83.10;;;;;;6126329;23;20038;-79
2023/02/16 16:19:36;;;;;;;3.00;1.77;;;13.90;83.10;;;;;;6126448;23;20029;-79
2023/02/16 16:22:03;;;;;;;3.83;1.98;;;13.90;83.20;;;;;;6126789;23;20001;-79
2023/02/16 16:24:37;;;;;;;2.58;1.65;;;13.90;83.20;;;;;;6100914;23;20006;-79
2023/02/16 16:27:09;;;;;;;3.33;1.80;;;13.90;83.20;;;;;;6101583;23;20057;-79
2023/02/16 16:29:44;;;;;;;3.25;2.30;;;14.00;83.20;;;;;;6127477;23;20088;-79
2023/02/16 16:32:20;;;;;;;5.40;2.60;;;13.90;83.20;;;;;;6126953;23;20060;-79
2023/02/16 16:34:46;;;;;;;4.05;2.20;;;14.00;83.20;;;;;;6100461;23;20013;-79
2023/02/16 16:37:26;;;;;;;2.55;1.83;;;14.00;83.10;;;;;;6127041;23;20002;-78
2023/02/16 16:40:19;;;;;;;2.42;1.65;;;14.00;83.20;;;;;;6127242;23;20017;-79
2023/02/16 16:43:06;;;;;;;4.93;2.03;;;14.00;83.30;;;;;;6128681;23;20006;-79
2023/02/16 16:45:38;;;;;;;3.60;2.53;;;14.00;83.50;;;;;;6102536;23;20442;-83
2023/02/16 16:48:28;;;;;;;3.65;1.77;;;14.00;83.50;;;;;;6128956;23;19998;-79
2023/02/16 16:51:27;;;;;;;4.57;2.00;;;13.90;83.50;;;;;;6128601;23;20002;-83
2023/02/16 16:53:59;;;;;;;4.90;2.08;;;13.90;83.60;;;;;;6099870;23;20017;-81
2023/02/16 16:56:26;;;;;;;3.05;2.17;;;14.00;83.60;;;;;;6129493;23;20623;-82
2023/02/16 16:58:57;;;;;;;3.35;2.35;;;13.90;83.60;;;;;;6103989;23;20033;-85
2023/02/16 17:01:25;;;;;;;2.85;2.05;;;13.90;83.60;;;;;;6129554;23;20002;-84
2023/02/16 17:03:53;;;;;;;2.92;1.83;;;13.90;83.60;;;;;;6103777;23;20057;-87
2023/02/16 17:06:19;;;;;;;3.00;1.90;;;13.90;83.60;;;;;;6103655;23;20014;-81
2023/02/16 17:08:45;;;;;;;4.45;2.15;;;13.80;83.70;;;;;;6099944;23;20012;-84
2023/02/16 17:11:20;;;;;;;3.10;2.30;;;13.90;83.80;;;;;;6126901;23;20026;-85
2023/02/16 17:13:45;;;;;;;2.55;2.22;;;13.80;83.80;;;;;;6128299;23;20010;-83
2023/02/16 17:16:17;;;;;;;3.28;2.40;;;13.90;83.80;;;;;;6127861;23;20002;-84
2023/02/16 17:18:43;;;;;;;4.32;2.15;;;13.80;83.80;;;;;;6128747;23;20037;-83
2023/02/16 17:21:13;;;;;;;2.83;2.22;;;13.80;83.90;;;;;;6103527;23;20009;-84
2023/02/16 17:23:39;;;;;;;6.25;2.78;;;13.80;83.90;;;;;;6103034;23;20491;-83
2023/02/16 17:26:05;;;;;;;3.08;2.28;;;13.80;83.80;;;;;;6126560;23;20088;-84
2023/02/16 17:28:35;;;;;;;4.13;2.50;;;13.80;83.90;;;;;;6128344;23;20013;-83
2023/02/16 17:31:02;;;;;;;;;;;13.80;83.80;;;;;;6128860;23;20108;-84
2023/02/16 17:33:28;;;;;;;4.07;2.25;;;13.80;83.80;;;;;;6126655;23;19944;-84
2023/02/16 17:35:54;;;;;;;2.65;1.92;;;13.80;84.10;;;;;;6103211;23;20013;-84
2023/02/16 17:38:21;;;;;;;3.08;2.20;;;13.80;84.10;;;;;;6102790;23;20017;-84
2023/02/16 17:41:10;;;;;;;4.07;2.17;;;13.80;84.20;;;;;;6129173;23;20339;-83
2023/02/16 17:43:35;;;;;;;2.60;2.03;;;13.80;84.20;;;;;;6126936;23;20085;-84
2023/02/16 17:46:03;;;;;;;4.68;2.90;;;13.80;84.10;;;;;;6101294;23;20012;-80
2023/02/16 17:48:29;;;;;;;4.10;2.22;;;13.80;84.10;;;;;;6100850;23;20057;-79
2023/02/16 17:50:56;;;;;;;3.42;2.40;;;13.80;84.20;;;;;;6100087;23;20014;-81
2023/02/16 17:53:24;;;;;;;4.00;2.72;;;13.80;84.20;;;;;;6128526;23;20076;-82
2023/02/16 17:55:52;;;;;;;2.58;2.13;;;13.80;84.10;;;;;;6128739;23;20002;-81
2023/02/16 17:58:22;;;;;;;3.55;2.30;;;13.80;84.10;;;;;;6129139;23;20006;-81
2023/02/16 18:00:50;;;;;;;3.00;2.38;;;13.80;84.10;;;;;;6127701;23;20026;-81
2023/02/16 18:03:16;;;;;;;4.03;2.58;;;13.80;84.20;;;;;;6128106;23;20505;-82
2023/02/16 18:05:43;;;;;;;5.07;2.35;;;13.80;84.20;;;;;;6128349;23;20026;-81
2023/02/16 18:08:11;;;;;;;3.20;2.45;;;13.80;84.30;;;;;;6102741;23;20061;-81
2023/02/16 18:10:42;;;;;;;3.85;2.58;;;13.80;84.30;;;;;;6128473;23;20002;-81
2023/02/16 18:13:10;;;;;;;2.75;2.30;;;13.80;84.30;;;;;;6128378;23;19998;-81
2023/02/16 18:15:40;;;;;;;3.25;2.60;;;13.80;84.30;;;;;;6127690;23;19998;-80
2023/02/16 18:18:06;;;;;;;;;;;13.80;84.20;;;;;;6128719;23;20017;-81
2023/02/16 18:20:32;;;;;;;5.15;2.38;;;13.80;84.30;;;;;;6129083;23;19905;-81
2023/02/16 18:22:58;;;;;;;4.00;2.92;;;13.80;84.30;;;;;;6127314;23;20085;-81
2023/02/16 18:25:23;;;;;;;3.65;2.72;;;13.80;84.20;;;;;;6098059;23;20046;-80
2023/02/16 18:27:49;;;;;;;6.45;2.75;;;13.80;84.30;;;;;;6128350;23;20422;-78
2023/02/16 18:30:15;;;;;;;3.35;2.58;;;13.80;84.10;;;;;;6127949;23;20025;-80
2023/02/16 18:32:43;;;;;;;2.88;2.58;;;13.80;84.10;;;;;;6128017;23;20034;-77
2023/02/16 18:35:09;;;;;;;3.53;2.70;;;13.80;84.20;;;;;;6127947;23;20026;-83
2023/02/16 18:37:35;;;;;;;3.17;2.88;;;13.70;84.40;;;;;;6127837;23;20006;-76
2023/02/16 18:40:01;;;;;;;2.95;2.60;;;13.80;84.30;;;;;;6103781;23;20014;-78
2023/02/16 18:42:27;;;;;;;3.80;3.22;;;13.70;84.40;;;;;;6103555;23;20017;-78